createdAt,value
2018-08-30T00:00:52.871Z,15.30
2018-08-30T00:03:21.159Z,15.43
2018-08-30T00:05:49.418Z,15.17
2018-08-30T00:08:17.675Z,15.07
2018-08-30T00:10:45.927Z,15.27
2018-08-30T00:13:14.198Z,15.00
2018-08-30T00:15:42.489Z,14.27
2018-08-30T00:18:10.792Z,15.30
2018-08-30T00:20:39.058Z,15.33
2018-08-30T00:23:07.296Z,14.93
2018-08-30T00:25:36.318Z,15.60
2018-08-30T00:28:04.632Z,14.77
2018-08-30T00:30:32.894Z,15.27
2018-08-30T00:33:01.188Z,15.20
2018-08-30T00:35:29.461Z,16.37
2018-08-30T00:37:57.707Z,15.40
2018-08-30T00:40:25.954Z,16.77
2018-08-30T00:42:55.204Z,16.17
2018-08-30T00:45:23.487Z,15.63
2018-08-30T00:47:51.758Z,16.33
2018-08-30T00:50:20.043Z,15.70
2018-08-30T00:52:48.296Z,16.53
2018-08-30T00:55:16.545Z,17.57
2018-08-30T00:57:44.846Z,16.00
2018-08-30T01:00:13.097Z,17.00
2018-08-30T01:02:41.399Z,16.20
2018-08-30T01:05:09.640Z,16.30
2018-08-30T01:07:37.960Z,16.23
2018-08-30T01:10:06.546Z,16.70
2018-08-30T01:12:39.184Z,17.60
2018-08-30T01:15:07.483Z,17.07
2018-08-30T01:17:35.787Z,17.77
2018-08-30T01:20:04.016Z,16.80
2018-08-30T01:22:32.363Z,16.93
2018-08-30T01:25:00.602Z,17.47
2018-08-30T01:27:28.891Z,17.73
2018-08-30T01:29:57.179Z,17.70
2018-08-30T01:32:25.489Z,18.03
2018-08-30T01:34:53.744Z,18.60
2018-08-30T01:37:21.976Z,18.70
2018-08-30T01:39:50.303Z,19.43
2018-08-30T01:42:18.558Z,18.07
2018-08-30T01:44:46.799Z,19.17
2018-08-30T01:47:15.119Z,18.53
2018-08-30T01:49:43.415Z,18.63
2018-08-30T01:52:12.065Z,18.77
2018-08-30T01:54:40.320Z,19.20
2018-08-30T01:57:08.576Z,19.57
2018-08-30T01:59:36.807Z,21.17
2018-08-30T02:02:05.061Z,19.60
2018-08-30T02:04:33.355Z,21.10
2018-08-30T02:07:01.599Z,19.47
2018-08-30T02:09:29.879Z,20.03
2018-08-30T02:11:58.125Z,21.57
2018-08-30T02:14:26.388Z,19.70
2018-08-30T02:16:54.718Z,21.10
2018-08-30T02:19:23.271Z,21.53
2018-08-30T02:21:51.516Z,21.77
2018-08-30T02:24:19.835Z,21.37
2018-08-30T02:26:48.213Z,20.33
2018-08-30T02:29:16.500Z,21.77
2018-08-30T02:31:44.753Z,21.47
2018-08-30T02:34:13.230Z,21.53
2018-08-30T02:36:41.604Z,21.70
2018-08-30T02:39:10.515Z,21.80
2018-08-30T02:41:39.142Z,23.17
2018-08-30T02:44:07.388Z,23.17
2018-08-30T02:46:35.685Z,22.73
2018-08-30T02:49:04.052Z,23.47
2018-08-30T02:51:32.370Z,22.90
2018-08-30T02:54:01.054Z,22.73
2018-08-30T02:56:29.300Z,22.80
2018-08-30T02:58:57.579Z,22.00
2018-08-30T03:01:25.886Z,22.33
2018-08-30T03:03:54.174Z,23.33
2018-08-30T03:06:22.476Z,24.87
2018-08-30T03:08:50.770Z,23.57
2018-08-30T03:11:19.010Z,23.90
2018-08-30T03:13:47.271Z,24.13
2018-08-30T03:16:15.559Z,24.77
2018-08-30T03:18:43.849Z,23.83
2018-08-30T03:21:12.107Z,23.53
2018-08-30T03:23:40.376Z,23.77
2018-08-30T03:26:08.641Z,24.37
2018-08-30T03:28:36.902Z,25.90
2018-08-30T03:31:05.346Z,26.17
2018-08-30T03:33:33.515Z,24.93
2018-08-30T03:36:01.789Z,24.53
2018-08-30T03:38:30.151Z,24.77
2018-08-30T03:40:58.415Z,26.20
2018-08-30T03:43:26.695Z,25.93
2018-08-30T03:45:54.946Z,25.17
2018-08-30T03:48:23.212Z,25.83
2018-08-30T03:50:51.479Z,26.70
2018-08-30T03:53:19.725Z,29.87
2018-08-30T03:55:47.999Z,29.80
2018-08-30T03:58:16.264Z,26.60
2018-08-30T04:00:44.512Z,26.80
2018-08-30T04:03:12.770Z,26.83
2018-08-30T04:05:41.047Z,26.00
2018-08-30T04:08:09.346Z,26.77
2018-08-30T04:10:37.623Z,26.77
2018-08-30T04:13:05.887Z,27.47
2018-08-30T04:15:34.152Z,25.90
2018-08-30T04:18:02.422Z,26.23
2018-08-30T04:20:30.697Z,28.27
2018-08-30T04:22:58.992Z,27.87
2018-08-30T04:25:27.262Z,27.10
2018-08-30T04:27:55.515Z,27.10
2018-08-30T04:30:23.800Z,27.03
2018-08-30T04:32:52.104Z,26.97
2018-08-30T04:35:20.380Z,28.63
2018-08-30T04:37:48.634Z,26.23
2018-08-30T04:40:16.902Z,27.23
2018-08-30T04:42:45.219Z,27.47
2018-08-30T04:45:13.499Z,27.37
2018-08-30T04:47:41.733Z,27.97
2018-08-30T04:50:10.054Z,26.87
2018-08-30T04:52:38.328Z,26.63
2018-08-30T04:55:06.602Z,25.60
2018-08-30T04:57:34.910Z,27.07
2018-08-30T05:00:03.247Z,27.07
2018-08-30T05:02:31.553Z,27.47
2018-08-30T05:04:59.799Z,27.50
2018-08-30T05:07:28.097Z,28.80
2018-08-30T05:09:56.411Z,26.20
2018-08-30T05:12:24.756Z,27.97
2018-08-30T05:14:53.030Z,28.53
2018-08-30T05:17:21.283Z,27.83
2018-08-30T05:19:49.532Z,26.47
2018-08-30T05:22:17.839Z,27.87
2018-08-30T05:24:46.092Z,27.63
2018-08-30T05:27:14.370Z,27.33
2018-08-30T05:29:42.625Z,26.93
2018-08-30T05:32:10.896Z,25.40
2018-08-30T05:34:39.171Z,25.30
2018-08-30T05:37:07.427Z,25.63
2018-08-30T05:39:35.684Z,28.03
2018-08-30T05:42:03.927Z,25.43
2018-08-30T05:44:32.171Z,24.57
2018-08-30T05:47:00.492Z,28.17
2018-08-30T05:49:28.756Z,27.07
2018-08-30T05:51:57.021Z,27.20
2018-08-30T05:54:25.302Z,26.27
2018-08-30T05:56:53.613Z,25.90
2018-08-30T05:59:21.911Z,27.30
2018-08-30T06:01:50.254Z,29.30
2018-08-30T06:04:18.496Z,28.00
2018-08-30T06:06:46.772Z,28.90
2018-08-30T06:09:15.098Z,28.97
2018-08-30T06:11:43.347Z,28.30
2018-08-30T06:14:11.588Z,26.47
2018-08-30T06:16:39.839Z,26.97
2018-08-30T06:19:08.092Z,26.07
2018-08-30T06:21:36.328Z,26.47
2018-08-30T06:24:04.708Z,25.90
2018-08-30T06:26:33.059Z,26.67
2018-08-30T06:29:01.333Z,26.13
2018-08-30T06:31:29.577Z,25.93
2018-08-30T06:33:57.927Z,25.60
2018-08-30T06:36:26.227Z,24.70
2018-08-30T06:38:54.479Z,24.33
2018-08-30T06:41:22.744Z,24.53
2018-08-30T06:43:51.031Z,22.80
2018-08-30T06:46:19.270Z,23.53
2018-08-30T06:48:47.610Z,25.27
2018-08-30T06:51:15.884Z,24.83
2018-08-30T06:53:44.121Z,22.67
2018-08-30T06:56:12.344Z,23.20
2018-08-30T06:58:40.566Z,23.47
2018-08-30T07:01:08.831Z,21.87
2018-08-30T07:03:37.032Z,20.93
2018-08-30T07:06:05.324Z,21.40
2018-08-30T07:08:33.535Z,22.67
2018-08-30T07:11:01.734Z,21.07
2018-08-30T07:13:29.942Z,21.97
2018-08-30T07:15:58.180Z,22.00
2018-08-30T07:18:26.474Z,22.53
2018-08-30T07:20:54.678Z,20.30
2018-08-30T07:23:22.907Z,20.57
2018-08-30T07:25:51.115Z,22.93
2018-08-30T07:28:19.320Z,21.20
2018-08-30T07:30:47.572Z,20.03
2018-08-30T07:33:15.780Z,20.03
2018-08-30T07:35:43.999Z,19.87
2018-08-30T07:38:12.200Z,19.43
2018-08-30T07:40:40.408Z,18.37
2018-08-30T07:43:08.612Z,18.23
2018-08-30T07:45:36.862Z,17.50
2018-08-30T07:48:05.115Z,16.70
2018-08-30T07:50:33.321Z,16.30
2018-08-30T07:53:01.508Z,16.43
2018-08-30T07:55:29.706Z,17.27
2018-08-30T07:57:57.899Z,17.20
2018-08-30T08:00:26.379Z,16.60
2018-08-30T08:02:55.191Z,15.90
2018-08-30T08:05:23.599Z,16.70
2018-08-30T08:07:51.892Z,17.27
2018-08-30T08:10:20.127Z,14.90
2018-08-30T08:12:48.458Z,15.63
2018-08-30T08:15:17.095Z,15.20
2018-08-30T08:17:45.503Z,14.93
2018-08-30T08:20:13.707Z,14.50
2018-08-30T08:22:41.942Z,14.27
2018-08-30T08:25:10.198Z,12.70
2018-08-30T08:27:38.407Z,13.17
2018-08-30T08:30:06.844Z,13.67
2018-08-30T08:32:35.038Z,12.67
2018-08-30T08:35:03.394Z,12.60
2018-08-30T08:37:31.639Z,12.50
2018-08-30T08:39:59.831Z,13.00
2018-08-30T08:42:28.087Z,13.03
2018-08-30T08:44:56.271Z,12.03
2018-08-30T08:47:25.502Z,12.20
2018-08-30T08:49:53.820Z,11.57
2018-08-30T08:54:44.279Z,11.17
2018-08-30T08:57:12.471Z,10.30
2018-08-30T08:59:40.666Z,10.97
2018-08-30T09:02:08.899Z,11.57
2018-08-30T09:04:37.113Z,10.63
2018-08-30T09:07:05.795Z,10.30
2018-08-30T09:09:34.063Z,10.17
2018-08-30T09:12:02.288Z,10.73
2018-08-30T09:14:30.608Z,10.97
2018-08-30T09:16:58.875Z,10.70
2018-08-30T09:19:27.086Z,10.73
2018-08-30T09:21:55.311Z,11.37
2018-08-30T09:24:24.283Z,10.53
2018-08-30T09:26:52.532Z,11.37
2018-08-30T09:29:20.750Z,10.40
2018-08-30T09:31:48.943Z,10.33
2018-08-30T09:34:17.135Z,10.93
2018-08-30T09:36:45.334Z,10.67
2018-08-30T09:39:14.040Z,9.50
2018-08-30T09:41:42.235Z,9.97
2018-08-30T09:44:10.438Z,10.40
2018-08-30T09:46:38.687Z,9.97
2018-08-30T09:49:07.067Z,10.23
2018-08-30T09:51:35.316Z,10.67
2018-08-30T09:54:03.540Z,10.20
2018-08-30T09:56:31.771Z,10.40
2018-08-30T09:58:59.964Z,11.03
2018-08-30T10:01:33.742Z,10.47
2018-08-30T10:04:02.046Z,10.30
2018-08-30T10:06:30.248Z,10.17
2018-08-30T10:08:58.795Z,10.30
2018-08-30T10:11:36.652Z,11.40
2018-08-30T10:14:05.079Z,10.83
2018-08-30T10:16:33.289Z,9.97
2018-08-30T10:19:01.491Z,10.50
2018-08-30T10:21:29.718Z,10.77
2018-08-30T10:23:57.947Z,11.10
2018-08-30T10:26:26.274Z,10.33
2018-08-30T10:28:54.490Z,11.27
2018-08-30T10:31:22.715Z,12.10
2018-08-30T10:33:50.954Z,12.63
2018-08-30T10:36:19.248Z,11.77
2018-08-30T10:38:47.535Z,10.70
2018-08-30T10:41:15.748Z,11.50
2018-08-30T10:43:44.002Z,10.90
2018-08-30T10:46:12.203Z,10.43
2018-08-30T10:48:40.408Z,10.63
2018-08-30T10:51:08.754Z,10.23
2018-08-30T10:53:36.996Z,10.37
2018-08-30T10:56:05.294Z,10.60
2018-08-30T10:58:33.526Z,9.75
2018-08-30T11:01:01.735Z,11.40
2018-08-30T11:03:30.032Z,10.15
2018-08-30T11:05:59.186Z,10.20
2018-08-30T11:08:27.384Z,10.65
2018-08-30T11:10:55.655Z,10.08
2018-08-30T11:13:23.970Z,10.70
2018-08-30T11:15:52.170Z,9.80
2018-08-30T11:18:20.478Z,10.40
2018-08-30T11:20:49.163Z,9.78
2018-08-30T11:23:17.412Z,10.70
2018-08-30T11:25:45.676Z,10.08
2018-08-30T11:28:13.955Z,10.40
2018-08-30T11:30:43.015Z,10.75
2018-08-30T11:33:11.323Z,9.90
2018-08-30T11:35:39.531Z,10.18
2018-08-30T11:38:07.807Z,10.50
2018-08-30T11:40:36.046Z,10.80
2018-08-30T11:43:04.369Z,10.82
2018-08-30T11:45:32.604Z,10.58
2018-08-30T11:48:00.850Z,10.78
2018-08-30T11:50:29.058Z,10.50
2018-08-30T11:52:57.271Z,11.08
2018-08-30T11:55:25.545Z,10.82
2018-08-30T11:57:53.748Z,11.08
2018-08-30T12:00:22.697Z,9.73
2018-08-30T12:02:50.931Z,10.65
2018-08-30T12:05:19.360Z,9.48
2018-08-30T12:07:47.662Z,10.18
2018-08-30T12:10:16.020Z,10.43
2018-08-30T12:12:44.152Z,10.95
2018-08-30T12:15:12.364Z,10.88
2018-08-30T12:17:40.619Z,10.38
2018-08-30T12:20:08.891Z,10.55
2018-08-30T12:22:37.184Z,10.50
2018-08-30T12:25:05.390Z,10.43
2018-08-30T12:27:33.591Z,10.37
2018-08-30T12:30:01.864Z,10.77
2018-08-30T12:32:30.144Z,10.83
2018-08-30T12:34:58.410Z,11.30
2018-08-30T12:37:26.689Z,10.33
2018-08-30T12:39:55.072Z,10.77
2018-08-30T12:42:23.354Z,11.47
2018-08-30T12:44:52.295Z,10.60
2018-08-30T12:47:20.564Z,11.20
2018-08-30T12:49:48.783Z,10.63
2018-08-30T12:52:23.547Z,10.87
2018-08-30T12:54:51.656Z,12.00
2018-08-30T12:57:20.124Z,10.57
2018-08-30T12:59:48.388Z,10.30
2018-08-30T13:02:16.716Z,11.18
2018-08-30T13:04:44.923Z,10.60
2018-08-30T13:07:13.236Z,10.73
2018-08-30T13:09:41.551Z,10.97
2018-08-30T13:12:10.329Z,11.70
2018-08-30T13:14:38.634Z,11.87
2018-08-30T13:17:06.589Z,11.30
2018-08-30T13:19:35.155Z,11.83
2018-08-30T13:22:03.562Z,10.90
2018-08-30T13:24:31.753Z,11.67
2018-08-30T13:26:59.948Z,10.70
2018-08-30T13:29:28.448Z,11.30
2018-08-30T13:31:56.723Z,11.43
2018-08-30T13:34:25.310Z,11.33
2018-08-30T13:36:53.378Z,12.57
2018-08-30T13:39:21.830Z,11.77
2018-08-30T13:41:49.886Z,11.97
2018-08-30T13:44:17.953Z,12.87
2018-08-30T13:46:46.300Z,11.70
2018-08-30T13:49:14.437Z,12.90
2018-08-30T13:51:43.006Z,12.87
2018-08-30T13:54:11.136Z,12.00
2018-08-30T13:56:39.680Z,12.73
2018-08-30T13:59:07.694Z,13.33
2018-08-30T14:01:35.942Z,12.53
2018-08-30T14:04:04.003Z,12.57
2018-08-30T14:06:32.279Z,12.70
2018-08-30T14:09:00.630Z,12.57
2018-08-30T14:11:28.898Z,13.50
2018-08-30T14:13:57.203Z,13.13
2018-08-30T14:16:25.167Z,12.97
2018-08-30T14:18:53.510Z,12.77
2018-08-30T14:21:21.694Z,13.20
2018-08-30T14:23:49.903Z,12.83
2018-08-30T14:26:19.361Z,13.03
2018-08-30T14:28:47.540Z,13.73
2018-08-30T14:31:15.783Z,13.00
2018-08-30T14:33:44.915Z,13.57
2018-08-30T14:36:13.509Z,13.53
2018-08-30T14:38:41.888Z,14.43
2018-08-30T14:41:10.232Z,12.73
2018-08-30T14:43:38.349Z,14.10
2018-08-30T14:46:07.056Z,13.77
2018-08-30T14:48:35.362Z,12.93
2018-08-30T14:51:03.705Z,13.50
2018-08-30T14:53:32.173Z,14.90
2018-08-30T14:56:00.232Z,14.83
2018-08-30T14:58:28.516Z,16.50
2018-08-30T15:00:56.779Z,16.27
2018-08-30T15:03:25.006Z,15.57
2018-08-30T15:05:53.333Z,16.40
2018-08-30T15:08:21.517Z,16.90
2018-08-30T15:10:49.830Z,16.87
2018-08-30T15:13:18.081Z,16.40
2018-08-30T15:15:46.316Z,17.07
2018-08-30T15:18:14.562Z,17.73
2018-08-30T15:20:42.801Z,16.43
2018-08-30T15:23:11.248Z,17.00
2018-08-30T15:25:39.585Z,17.40
2018-08-30T15:28:07.975Z,16.30
2018-08-30T15:30:36.291Z,16.83
2018-08-30T15:33:05.272Z,16.87
2018-08-30T15:35:35.187Z,16.30
2018-08-30T15:38:03.451Z,16.13
2018-08-30T15:40:31.738Z,15.37
2018-08-30T15:43:00.031Z,14.50
2018-08-30T15:45:28.233Z,14.93
2018-08-30T15:47:56.517Z,12.50
2018-08-30T15:50:24.735Z,13.17
2018-08-30T15:52:52.962Z,11.80
2018-08-30T15:55:21.172Z,10.93
2018-08-30T15:57:49.572Z,11.37
2018-08-30T16:00:17.742Z,11.53
2018-08-30T16:02:46.527Z,10.93
2018-08-30T16:05:15.088Z,11.63
2018-08-30T16:07:43.892Z,10.10
2018-08-30T16:10:13.061Z,10.80
2018-08-30T16:12:41.272Z,10.80
2018-08-30T16:15:09.783Z,10.23
2018-08-30T16:17:38.002Z,10.43
2018-08-30T16:20:06.452Z,10.70
2018-08-30T16:22:40.248Z,11.43
2018-08-30T16:25:08.459Z,12.50
2018-08-30T16:27:37.484Z,12.63
2018-08-30T16:30:05.793Z,13.83
2018-08-30T16:32:34.042Z,16.27
2018-08-30T16:35:02.368Z,17.03
2018-08-30T16:37:30.576Z,17.73
2018-08-30T16:39:58.837Z,18.90
2018-08-30T16:42:27.362Z,21.13
2018-08-30T16:44:55.682Z,21.13
2018-08-30T16:47:23.963Z,20.47
2018-08-30T16:49:52.177Z,19.90
2018-08-30T16:52:20.401Z,22.67
2018-08-30T16:54:48.610Z,24.73
2018-08-30T16:57:16.927Z,23.57
2018-08-30T16:59:45.096Z,26.60
2018-08-30T17:02:13.323Z,27.47
2018-08-30T17:04:41.544Z,27.77
2018-08-30T17:07:09.794Z,28.57
2018-08-30T17:09:37.995Z,28.30
2018-08-30T17:12:06.289Z,28.30
2018-08-30T17:14:34.696Z,27.57
2018-08-30T17:17:03.012Z,27.70
2018-08-30T17:19:31.724Z,29.90
2018-08-30T17:21:59.928Z,28.67
2018-08-30T17:24:28.131Z,29.50
2018-08-30T17:26:56.379Z,30.63
2018-08-30T17:29:24.643Z,31.43
2018-08-30T17:31:52.877Z,34.80
2018-08-30T17:34:21.106Z,32.90
2018-08-30T17:36:49.335Z,35.03
2018-08-30T17:39:17.552Z,35.83
2018-08-30T17:41:45.985Z,37.70
2018-08-30T17:44:14.207Z,37.67
2018-08-30T17:46:42.411Z,39.77
2018-08-30T17:49:10.621Z,40.50
2018-08-30T17:51:38.877Z,39.13
2018-08-30T17:54:07.452Z,41.37
2018-08-30T17:56:35.680Z,41.33
2018-08-30T17:59:03.912Z,39.33
2018-08-30T18:01:32.245Z,40.03
2018-08-30T18:04:00.406Z,40.80
2018-08-30T18:06:28.652Z,42.60
2018-08-30T18:08:56.983Z,41.13
2018-08-30T18:11:25.200Z,39.80
2018-08-30T18:13:53.421Z,42.40
2018-08-30T18:16:21.623Z,38.73
2018-08-30T18:18:49.856Z,41.77
2018-08-30T18:21:18.080Z,42.67
2018-08-30T18:23:46.296Z,44.50
2018-08-30T18:26:14.548Z,44.13
2018-08-30T18:28:42.765Z,44.50
2018-08-30T18:31:10.993Z,49.07
2018-08-30T18:33:39.199Z,48.67
2018-08-30T18:36:07.432Z,49.77
2018-08-30T18:38:35.712Z,49.37
2018-08-30T18:41:03.932Z,50.27
2018-08-30T18:43:32.223Z,50.47
2018-08-30T18:46:00.481Z,48.93
2018-08-30T18:48:28.739Z,51.83
2018-08-30T18:50:56.994Z,50.37
2018-08-30T18:53:25.218Z,50.87
2018-08-30T18:55:54.633Z,53.50
2018-08-30T18:58:22.916Z,53.30
2018-08-30T19:00:51.870Z,51.10
2018-08-30T19:03:20.529Z,53.47
2018-08-30T19:05:49.584Z,52.53
2018-08-30T19:08:18.028Z,53.20
2018-08-30T19:10:46.316Z,52.57
2018-08-30T19:13:14.793Z,54.80
2018-08-30T19:15:48.332Z,55.40
2018-08-30T19:18:22.121Z,53.73
2018-08-30T19:20:50.335Z,54.53
2018-08-30T19:23:18.563Z,52.37
2018-08-30T19:25:47.223Z,53.43
2018-08-30T19:28:15.456Z,53.50
2018-08-30T19:30:43.683Z,48.33
2018-08-30T19:33:12.659Z,49.90
2018-08-30T19:36:44.312Z,48.73
2018-08-30T19:39:13.194Z,46.40
2018-08-30T19:41:41.464Z,49.23
2018-08-30T19:44:09.976Z,48.63
2018-08-30T19:46:38.231Z,48.07
2018-08-30T19:49:07.302Z,48.77
2018-08-30T19:51:35.562Z,49.50
2018-08-30T19:54:03.867Z,50.40
2018-08-30T19:56:32.098Z,50.60
2018-08-30T19:59:00.310Z,50.20
2018-08-30T20:01:29.010Z,49.30
2018-08-30T20:03:57.225Z,47.93
2018-08-30T20:06:25.821Z,48.37
2018-08-30T20:08:55.064Z,46.10
2018-08-30T20:11:23.303Z,45.00
2018-08-30T20:13:51.527Z,45.00
2018-08-30T20:16:19.745Z,42.47
2018-08-30T20:18:48.023Z,40.23
2018-08-30T20:21:16.994Z,38.97
2018-08-30T20:23:45.562Z,38.60
2018-08-30T20:26:13.770Z,34.53
2018-08-30T20:28:41.975Z,33.90
2018-08-30T20:31:10.626Z,33.17
2018-08-30T20:33:38.864Z,31.53
2018-08-30T20:36:07.083Z,30.57
2018-08-30T20:38:35.322Z,30.63
2018-08-30T20:41:03.563Z,29.03
2018-08-30T20:43:31.841Z,28.70
2018-08-30T20:46:00.054Z,27.67
2018-08-30T20:48:28.256Z,25.60
2018-08-30T20:50:56.503Z,24.90
2018-08-30T20:53:24.777Z,25.17
2018-08-30T20:55:53.029Z,25.77
2018-08-30T20:58:25.515Z,24.47
2018-08-30T21:00:53.858Z,26.50
2018-08-30T21:03:22.201Z,27.30
2018-08-30T21:05:50.512Z,25.80
2018-08-30T21:08:18.925Z,24.90
2018-08-30T21:10:47.285Z,26.50
2018-08-30T21:13:19.646Z,24.93
2018-08-30T21:15:47.988Z,25.03
2018-08-30T21:18:16.369Z,24.97
2018-08-30T21:20:44.929Z,23.93
2018-08-30T21:23:13.287Z,25.37
2018-08-30T21:25:41.643Z,23.27
2018-08-30T21:28:10.116Z,23.00
2018-08-30T21:30:38.574Z,23.10
2018-08-30T21:33:06.953Z,22.00
2018-08-30T21:35:35.440Z,21.97
2018-08-30T21:38:03.914Z,21.10
2018-08-30T21:40:32.382Z,21.00
2018-08-30T21:43:00.755Z,20.33
2018-08-30T21:45:29.242Z,20.30
2018-08-30T21:47:57.677Z,20.83
2018-08-30T21:50:27.401Z,18.33
2018-08-30T21:52:55.924Z,18.83
2018-08-30T21:55:24.326Z,18.37
2018-08-30T21:57:52.829Z,18.33
2018-08-30T22:00:21.302Z,18.33
2018-08-30T22:02:49.932Z,16.77
2018-08-30T22:05:18.354Z,18.77
2018-08-30T22:07:46.774Z,17.90
2018-08-30T22:10:15.176Z,18.00
2018-08-30T22:12:43.900Z,18.17
2018-08-30T22:15:12.341Z,17.83
2018-08-30T22:17:40.856Z,19.23
2018-08-30T22:20:09.354Z,18.40
2018-08-30T22:22:38.348Z,18.73
2018-08-30T22:25:07.653Z,18.40
2018-08-30T22:27:36.131Z,19.20
2018-08-30T22:30:05.292Z,20.07
2018-08-30T22:32:33.687Z,19.80
2018-08-30T22:35:02.173Z,19.13
2018-08-30T22:37:30.545Z,18.20
2018-08-30T22:39:58.914Z,19.80
2018-08-30T22:42:27.290Z,19.43
2018-08-30T22:44:55.680Z,20.03
2018-08-30T22:47:24.084Z,18.60
2018-08-30T22:49:53.371Z,17.57
2018-08-30T22:52:21.766Z,19.50
2018-08-30T22:54:50.224Z,19.63
2018-08-30T22:57:18.539Z,18.23
2018-08-30T22:59:46.984Z,18.37
2018-08-30T23:02:15.424Z,18.07
2018-08-30T23:04:43.840Z,16.87
2018-08-30T23:07:12.154Z,17.67
2018-08-30T23:09:40.631Z,18.17
2018-08-30T23:12:09.065Z,17.83
2018-08-30T23:14:37.435Z,18.33
2018-08-30T23:17:05.934Z,17.33
2018-08-30T23:19:34.357Z,17.77
2018-08-30T23:22:03.404Z,18.73
2018-08-30T23:24:31.893Z,18.27
2018-08-30T23:27:00.376Z,19.03
2018-08-30T23:29:28.825Z,19.60
2018-08-30T23:31:57.357Z,18.20
2018-08-30T23:34:26.339Z,19.70
2018-08-30T23:36:54.868Z,19.27
2018-08-30T23:39:23.240Z,19.37
2018-08-30T23:41:51.709Z,20.27
2018-08-30T23:44:20.165Z,19.83
2018-08-30T23:46:48.749Z,19.10
2018-08-30T23:49:17.142Z,18.60
2018-08-30T23:51:45.466Z,19.00
2018-08-30T23:54:13.780Z,19.30
